createdAt,value
2023-02-25T00:01:37.677Z,2.95
2023-02-25T00:04:11.545Z,2.00
2023-02-25T00:06:53.211Z,3.05
2023-02-25T00:09:27.070Z,3.05
2023-02-25T00:12:06.910Z,2.90
2023-02-25T00:14:43.664Z,3.42
2023-02-25T00:17:19.255Z,2.70
2023-02-25T00:20:09.811Z,2.78
2023-02-25T00:22:51.299Z,2.63
2023-02-25T00:25:41.000Z,2.60
2023-02-25T00:28:20.221Z,3.17
2023-02-25T00:30:56.472Z,3.00
2023-02-25T00:33:31.794Z,2.30
2023-02-25T00:36:08.503Z,4.32
2023-02-25T00:38:48.196Z,3.17
2023-02-25T00:41:19.975Z,3.65
2023-02-25T00:43:53.650Z,4.45
2023-02-25T00:46:22.847Z,3.30
2023-02-25T00:48:55.165Z,3.05
2023-02-25T00:51:26.547Z,2.42
2023-02-25T00:53:56.756Z,3.65
2023-02-25T00:56:29.951Z,2.50
2023-02-25T00:59:00.364Z,2.50
2023-02-25T01:01:38.595Z,3.45
2023-02-25T01:04:26.746Z,2.65
2023-02-25T01:07:03.829Z,1.98
2023-02-25T01:09:36.525Z,2.58
2023-02-25T01:12:06.039Z,2.75
2023-02-25T01:14:35.854Z,2.33
2023-02-25T01:17:06.790Z,1.88
2023-02-25T01:22:10.184Z,2.30
2023-02-25T01:24:44.097Z,1.92
2023-02-25T01:27:20.787Z,2.08
2023-02-25T01:29:50.079Z,2.63
2023-02-25T01:32:23.066Z,1.95
2023-02-25T01:34:51.557Z,2.10
2023-02-25T01:37:23.313Z,2.15
2023-02-25T01:39:53.753Z,2.20
2023-02-25T01:42:26.046Z,1.60
2023-02-25T01:45:20.175Z,2.80
2023-02-25T01:47:59.485Z,2.72
2023-02-25T01:50:39.758Z,2.75
2023-02-25T01:53:09.799Z,2.45
2023-02-25T01:55:40.708Z,3.13
2023-02-25T01:58:14.424Z,1.85
2023-02-25T02:00:43.815Z,2.80
2023-02-25T02:03:29.078Z,1.27
2023-02-25T02:06:16.627Z,2.22
2023-02-25T02:08:51.073Z,2.00
2023-02-25T02:11:23.573Z,2.15
2023-02-25T02:14:05.208Z,2.35
2023-02-25T02:16:43.236Z,2.45
2023-02-25T02:19:18.500Z,2.28
2023-02-25T02:21:50.375Z,1.70
2023-02-25T02:24:37.510Z,1.75
2023-02-25T02:27:31.878Z,1.80
2023-02-25T02:30:14.126Z,1.88
2023-02-25T02:32:45.294Z,2.33
2023-02-25T02:35:15.527Z,2.35
2023-02-25T02:37:50.668Z,1.80
2023-02-25T02:40:21.973Z,2.25
2023-02-25T02:42:58.497Z,2.70
2023-02-25T02:45:35.217Z,2.20
2023-02-25T02:48:18.284Z,1.75
2023-02-25T02:50:47.918Z,2.13
2023-02-25T02:53:21.021Z,2.13
2023-02-25T02:55:52.534Z,2.30
2023-02-25T02:58:28.518Z,1.88
2023-02-25T03:01:24.149Z,2.60
2023-02-25T03:03:54.503Z,2.13
2023-02-25T03:06:27.121Z,4.28
2023-02-25T03:09:10.449Z,2.63
2023-02-25T03:11:39.068Z,2.38
2023-02-25T03:14:09.398Z,2.75
2023-02-25T03:16:41.547Z,2.30
2023-02-25T03:21:49.873Z,2.42
2023-02-25T03:24:22.314Z,2.58
2023-02-25T03:26:58.389Z,2.97
2023-02-25T03:29:32.142Z,2.20
2023-02-25T03:32:10.320Z,1.98
2023-02-25T03:34:43.294Z,2.30
2023-02-25T03:37:18.194Z,2.88
2023-02-25T03:39:49.115Z,1.70
2023-02-25T03:42:21.362Z,2.80
2023-02-25T03:44:51.646Z,2.03
2023-02-25T03:47:29.256Z,2.83
2023-02-25T03:50:17.833Z,1.92
2023-02-25T03:53:01.240Z,2.15
2023-02-25T03:55:53.750Z,2.50
2023-02-25T03:58:23.298Z,2.38
2023-02-25T04:00:55.122Z,1.90
2023-02-25T04:03:36.008Z,2.20
2023-02-25T04:06:05.656Z,2.10
2023-02-25T04:08:37.899Z,1.52
2023-02-25T04:11:11.225Z,1.88
2023-02-25T04:13:41.158Z,1.50
2023-02-25T04:16:11.390Z,2.40
2023-02-25T04:18:40.054Z,2.00
2023-02-25T04:21:25.784Z,2.53
2023-02-25T04:23:56.730Z,2.40
2023-02-25T04:26:27.648Z,1.63
2023-02-25T04:28:58.564Z,2.20
2023-02-25T04:31:27.668Z,2.35
2023-02-25T04:34:03.734Z,1.45
2023-02-25T04:36:35.150Z,2.25
2023-02-25T04:39:05.520Z,1.45
2023-02-25T04:41:36.768Z,2.15
2023-02-25T04:44:10.041Z,2.53
2023-02-25T04:46:43.250Z,2.10
2023-02-25T04:49:14.605Z,1.80
2023-02-25T04:51:47.129Z,1.70
2023-02-25T04:54:22.055Z,2.13
2023-02-25T04:56:53.681Z,1.75
2023-02-25T04:59:26.709Z,2.45
2023-02-25T05:01:57.673Z,2.58
2023-02-25T05:04:30.698Z,2.20
2023-02-25T05:07:01.740Z,2.22
2023-02-25T05:09:30.711Z,1.92
2023-02-25T05:11:59.523Z,1.98
2023-02-25T05:14:31.854Z,2.17
2023-02-25T05:17:01.331Z,1.98
2023-02-25T05:19:32.952Z,3.20
2023-02-25T05:22:02.611Z,1.98
2023-02-25T05:24:34.430Z,1.73
2023-02-25T05:27:08.603Z,1.95
2023-02-25T05:29:37.779Z,1.58
2023-02-25T05:32:07.694Z,2.17
2023-02-25T05:34:38.221Z,1.52
2023-02-25T05:37:07.456Z,2.25
2023-02-25T05:39:36.302Z,2.63
2023-02-25T05:42:06.175Z,1.70
2023-02-25T05:44:41.401Z,1.60
2023-02-25T05:47:09.792Z,1.67
2023-02-25T05:49:38.906Z,1.88
2023-02-25T05:52:07.579Z,1.65
2023-02-25T05:54:36.283Z,3.25
2023-02-25T05:57:04.717Z,2.15
2023-02-25T05:59:36.583Z,1.77
2023-02-25T06:02:06.330Z,3.55
2023-02-25T06:04:36.099Z,1.85
2023-02-25T06:07:13.206Z,2.15
2023-02-25T06:09:41.940Z,2.15
2023-02-25T06:12:13.386Z,2.08
2023-02-25T06:14:54.007Z,1.95
2023-02-25T06:17:24.619Z,1.75
2023-02-25T06:19:54.162Z,2.30
2023-02-25T06:22:27.436Z,1.98
2023-02-25T06:24:58.502Z,2.05
2023-02-25T06:27:29.842Z,1.80
2023-02-25T06:30:00.306Z,2.05
2023-02-25T06:32:39.089Z,2.08
2023-02-25T06:35:11.009Z,2.03
2023-02-25T06:37:58.803Z,1.63
2023-02-25T06:40:33.055Z,2.70
2023-02-25T06:43:05.961Z,2.33
2023-02-25T06:45:34.694Z,2.15
2023-02-25T06:48:04.609Z,2.40
2023-02-25T06:50:35.854Z,2.75
2023-02-25T06:53:04.929Z,2.22
2023-02-25T06:55:34.916Z,2.03
2023-02-25T06:58:05.601Z,2.75
2023-02-25T07:00:39.797Z,1.58
2023-02-25T07:03:27.809Z,1.85
2023-02-25T07:05:56.083Z,2.63
2023-02-25T07:08:27.297Z,1.83
2023-02-25T07:10:56.261Z,2.25
2023-02-25T07:13:25.815Z,2.10
2023-02-25T07:15:54.554Z,1.63
2023-02-25T07:18:23.389Z,2.17
2023-02-25T07:20:51.896Z,1.40
2023-02-25T07:23:21.556Z,2.25
2023-02-25T07:25:50.624Z,2.30
2023-02-25T07:28:19.136Z,2.92
2023-02-25T07:30:51.923Z,2.38
2023-02-25T07:33:27.657Z,2.00
2023-02-25T07:35:58.816Z,1.83
2023-02-25T07:38:31.408Z,1.45
2023-02-25T07:41:12.516Z,1.58
2023-02-25T07:43:47.060Z,2.85
2023-02-25T07:46:16.790Z,2.28
2023-02-25T07:48:48.882Z,1.95
2023-02-25T07:51:20.671Z,2.72
2023-02-25T07:53:50.715Z,2.28
2023-02-25T07:56:20.341Z,2.30
2023-02-25T07:58:48.816Z,2.38
2023-02-25T08:01:23.681Z,2.10
2023-02-25T08:03:55.551Z,2.15
2023-02-25T08:06:26.147Z,2.33
2023-02-25T08:08:55.905Z,2.00
2023-02-25T08:11:28.493Z,3.03
2023-02-25T08:14:02.452Z,3.45
2023-02-25T08:16:33.454Z,3.25
2023-02-25T08:19:01.876Z,3.22
2023-02-25T08:21:31.869Z,2.90
2023-02-25T08:24:01.173Z,3.00
2023-02-25T08:26:32.276Z,4.18
2023-02-25T08:29:04.792Z,3.97
2023-02-25T08:31:35.845Z,4.45
2023-02-25T08:34:07.251Z,5.85
2023-02-25T08:36:39.795Z,4.40
2023-02-25T08:39:11.609Z,4.18
2023-02-25T08:41:42.958Z,4.25
2023-02-25T08:44:12.498Z,3.95
2023-02-25T08:46:42.269Z,3.22
2023-02-25T08:49:13.495Z,2.75
2023-02-25T08:51:42.130Z,2.92
2023-02-25T08:54:14.170Z,2.67
2023-02-25T08:56:44.364Z,2.55
2023-02-25T08:59:15.326Z,2.90
2023-02-25T09:01:49.145Z,2.92
2023-02-25T09:04:23.699Z,3.00
2023-02-25T09:06:54.117Z,2.47
2023-02-25T09:09:23.122Z,2.65
2023-02-25T09:11:56.629Z,2.08
2023-02-25T09:14:25.309Z,2.78
2023-02-25T09:16:55.092Z,3.80
2023-02-25T09:19:23.841Z,2.30
2023-02-25T09:21:52.492Z,7.75
2023-02-25T09:24:21.615Z,2.95
2023-02-25T09:26:52.629Z,2.45
2023-02-25T09:29:21.275Z,2.08
2023-02-25T09:31:50.587Z,1.92
2023-02-25T09:34:21.884Z,2.30
2023-02-25T09:36:52.385Z,2.58
2023-02-25T09:39:24.475Z,2.03
2023-02-25T09:42:10.624Z,2.00
2023-02-25T09:44:39.171Z,3.30
2023-02-25T09:47:13.185Z,3.80
2023-02-25T09:49:43.733Z,2.13
2023-02-25T09:52:23.136Z,1.55
2023-02-25T09:54:57.807Z,1.67
2023-02-25T09:57:25.956Z,1.30
2023-02-25T09:59:54.647Z,1.20
2023-02-25T10:02:49.278Z,1.25
2023-02-25T10:05:18.280Z,1.42
2023-02-25T10:07:54.143Z,2.70
2023-02-25T10:10:24.916Z,0.90
2023-02-25T10:13:12.616Z,0.50
2023-02-25T10:15:52.379Z,0.57
2023-02-25T10:18:46.449Z,0.60
2023-02-25T10:21:26.431Z,0.50
2023-02-25T10:24:07.700Z,1.23
2023-02-25T10:26:40.448Z,0.73
2023-02-25T10:29:12.534Z,1.02
2023-02-25T10:31:44.299Z,0.60
2023-02-25T10:34:28.627Z,0.65
2023-02-25T10:36:58.458Z,1.02
2023-02-25T10:39:32.592Z,1.30
2023-02-25T10:42:01.659Z,1.98
2023-02-25T10:44:37.377Z,1.15
2023-02-25T10:47:07.871Z,2.30
2023-02-25T10:49:38.449Z,1.55
2023-02-25T10:52:15.193Z,0.90
2023-02-25T10:54:50.637Z,0.52
2023-02-25T10:57:33.985Z,2.65
2023-02-25T11:00:04.506Z,1.48
2023-02-25T11:02:54.523Z,0.88
2023-02-25T11:05:44.810Z,1.33
2023-02-25T11:08:37.975Z,1.40
2023-02-25T11:11:15.314Z,1.88
2023-02-25T11:13:44.334Z,2.30
2023-02-25T11:16:16.039Z,1.60
2023-02-25T11:18:52.251Z,2.15
2023-02-25T11:21:28.437Z,2.47
2023-02-25T11:24:02.011Z,2.05
2023-02-25T11:26:38.067Z,1.67
2023-02-25T11:29:15.709Z,2.40
2023-02-25T11:31:50.464Z,1.30
2023-02-25T11:34:22.029Z,1.98
2023-02-25T11:36:53.862Z,1.27
2023-02-25T11:39:22.666Z,1.42
2023-02-25T11:41:53.155Z,1.13
2023-02-25T11:44:24.572Z,1.20
2023-02-25T11:46:56.639Z,1.00
2023-02-25T11:49:42.250Z,0.80
2023-02-25T11:52:15.225Z,1.38
2023-02-25T11:54:45.574Z,1.27
2023-02-25T11:57:18.361Z,1.10
2023-02-25T11:59:57.023Z,0.47
2023-02-25T12:02:36.227Z,1.10
2023-02-25T12:05:07.404Z,1.20
2023-02-25T12:07:55.400Z,0.55
2023-02-25T12:10:28.062Z,1.10
2023-02-25T12:13:24.548Z,0.68
2023-02-25T12:16:02.308Z,0.88
2023-02-25T12:19:01.520Z,6.57
2023-02-25T12:21:39.570Z,1.27
2023-02-25T12:24:22.257Z,1.02
2023-02-25T12:27:14.143Z,1.15
2023-02-25T12:29:42.060Z,1.13
2023-02-25T12:32:39.505Z,0.80
2023-02-25T12:35:14.242Z,0.93
2023-02-25T12:37:45.259Z,1.48
2023-02-25T12:40:32.199Z,1.23
2023-02-25T12:43:18.749Z,0.85
2023-02-25T12:45:57.032Z,1.00
2023-02-25T12:48:34.111Z,0.77
2023-02-25T12:51:21.267Z,0.95
2023-02-25T12:54:00.857Z,1.15
2023-02-25T12:56:31.975Z,1.23
2023-02-25T12:59:19.143Z,1.30
2023-02-25T13:01:53.178Z,1.00
2023-02-25T13:04:21.288Z,0.80
2023-02-25T13:06:57.207Z,0.98
2023-02-25T13:09:37.142Z,0.93
2023-02-25T13:12:17.353Z,0.90
2023-02-25T13:14:58.440Z,0.93
2023-02-25T13:17:46.383Z,0.98
2023-02-25T13:20:35.890Z,0.93
2023-02-25T13:23:18.640Z,2.90
2023-02-25T13:26:07.805Z,2.08
2023-02-25T13:28:56.078Z,1.00
2023-02-25T13:31:33.075Z,0.90
2023-02-25T13:34:29.589Z,1.10
2023-02-25T13:37:12.950Z,1.02
2023-02-25T13:39:50.157Z,0.60
2023-02-25T13:42:37.139Z,0.93
2023-02-25T13:45:23.759Z,0.98
2023-02-25T13:47:53.761Z,2.17
2023-02-25T13:50:26.829Z,1.17
2023-02-25T13:53:13.600Z,0.75
2023-02-25T13:56:00.401Z,0.68
2023-02-25T13:58:47.350Z,0.88
2023-02-25T14:01:34.324Z,1.42
2023-02-25T14:04:25.796Z,0.68
2023-02-25T14:07:02.948Z,0.85
2023-02-25T14:09:32.999Z,0.73
2023-02-25T14:12:14.178Z,1.00
2023-02-25T14:14:42.800Z,0.80
2023-02-25T14:17:13.595Z,0.93
2023-02-25T14:20:02.861Z,0.82
2023-02-25T14:22:33.661Z,0.77
2023-02-25T14:25:03.752Z,0.80
2023-02-25T14:27:44.461Z,0.50
2023-02-25T14:30:27.787Z,0.77
2023-02-25T14:33:03.059Z,0.47
2023-02-25T14:35:34.402Z,0.55
2023-02-25T14:38:11.439Z,0.80
2023-02-25T14:40:42.202Z,1.02
2023-02-25T14:43:29.220Z,2.17
2023-02-25T14:46:00.570Z,0.88
2023-02-25T14:48:44.444Z,0.75
2023-02-25T14:53:41.349Z,0.50
2023-02-25T14:56:28.589Z,0.60
2023-02-25T14:59:02.769Z,0.47
2023-02-25T15:01:47.017Z,0.50
2023-02-25T15:04:21.140Z,0.30
2023-02-25T15:06:55.384Z,0.40
2023-02-25T15:09:37.555Z,0.30
2023-02-25T15:12:23.632Z,0.40
2023-02-25T15:14:57.658Z,0.30
2023-02-25T15:17:31.470Z,0.50
2023-02-25T15:20:04.311Z,0.30
2023-02-25T15:22:34.114Z,0.40
2023-02-25T15:25:20.844Z,0.40
2023-02-25T15:27:50.446Z,0.60
2023-02-25T15:30:26.140Z,0.47
2023-02-25T15:33:00.388Z,0.52
2023-02-25T15:35:37.718Z,0.60
2023-02-25T15:38:09.533Z,0.60
2023-02-25T15:40:50.718Z,0.60
2023-02-25T15:43:18.960Z,0.47
2023-02-25T15:45:47.283Z,0.70
2023-02-25T15:48:19.129Z,0.55
2023-02-25T15:50:47.205Z,0.52
2023-02-25T15:53:21.670Z,0.70
2023-02-25T15:56:10.077Z,0.70
2023-02-25T15:58:52.066Z,0.70
2023-02-25T16:01:30.888Z,0.60
2023-02-25T16:03:59.952Z,0.70
2023-02-25T16:06:28.063Z,0.45
2023-02-25T16:09:02.025Z,1.00
2023-02-25T16:11:35.242Z,0.57
2023-02-25T16:14:05.559Z,0.88
2023-02-25T16:16:36.292Z,0.70
2023-02-25T16:19:25.626Z,0.60
2023-02-25T16:22:20.792Z,0.80
2023-02-25T16:24:54.846Z,0.57
2023-02-25T16:30:18.727Z,0.63
2023-02-25T16:33:18.728Z,0.50
2023-02-25T16:36:07.733Z,0.50
2023-02-25T16:38:38.919Z,0.60
2023-02-25T16:41:07.288Z,0.77
2023-02-25T16:43:38.281Z,0.55
2023-02-25T16:46:07.659Z,0.88
2023-02-25T16:48:54.546Z,0.60
2023-02-25T16:51:34.371Z,0.50
2023-02-25T16:54:11.763Z,0.93
2023-02-25T16:56:40.643Z,1.38
2023-02-25T16:59:15.616Z,0.77
2023-02-25T17:01:49.213Z,1.55
2023-02-25T17:04:21.939Z,0.90
2023-02-25T17:07:11.682Z,0.75
2023-02-25T17:09:45.603Z,0.45
2023-02-25T17:12:16.385Z,0.90
2023-02-25T17:14:47.023Z,0.60
2023-02-25T17:17:23.957Z,0.68
2023-02-25T17:19:59.216Z,0.88
2023-02-25T17:22:28.367Z,0.88
2023-02-25T17:25:04.004Z,0.70
2023-02-25T17:27:35.714Z,0.68
2023-02-25T17:30:27.672Z,0.60
2023-02-25T17:33:22.237Z,0.50
2023-02-25T17:35:53.378Z,0.60
2023-02-25T17:38:22.845Z,0.63
2023-02-25T17:40:52.872Z,0.90
2023-02-25T17:43:21.498Z,0.70
2023-02-25T17:45:50.615Z,0.88
2023-02-25T17:48:30.308Z,0.85
2023-02-25T17:51:00.197Z,0.75
2023-02-25T17:53:36.718Z,0.77
2023-02-25T17:56:17.585Z,0.80
2023-02-25T17:58:46.116Z,0.80
2023-02-25T18:01:26.395Z,0.65
2023-02-25T18:04:06.360Z,0.50
2023-02-25T18:06:44.933Z,0.63
2023-02-25T18:09:36.392Z,0.70
2023-02-25T18:12:08.635Z,0.80
2023-02-25T18:14:45.693Z,0.90
2023-02-25T18:17:28.400Z,0.85
2023-02-25T18:20:01.826Z,0.80
2023-02-25T18:22:38.521Z,0.63
2023-02-25T18:25:08.793Z,0.82
2023-02-25T18:27:44.555Z,1.15
2023-02-25T18:30:18.082Z,1.23
2023-02-25T18:33:05.851Z,0.75
2023-02-25T18:35:39.206Z,1.13
2023-02-25T18:38:08.034Z,0.88
2023-02-25T18:40:41.668Z,0.90
2023-02-25T18:43:16.197Z,1.25
2023-02-25T18:45:46.996Z,1.50
2023-02-25T18:48:16.480Z,1.38
2023-02-25T18:50:45.483Z,1.90
2023-02-25T18:53:15.448Z,1.55
2023-02-25T18:55:44.582Z,0.93
2023-02-25T18:58:14.374Z,1.30
2023-02-25T19:00:53.775Z,1.65
2023-02-25T19:03:40.316Z,1.80
2023-02-25T19:06:10.299Z,1.70
2023-02-25T19:08:43.726Z,1.77
2023-02-25T19:11:25.639Z,1.65
2023-02-25T19:13:59.089Z,0.93
2023-02-25T19:16:28.129Z,0.90
2023-02-25T19:18:57.978Z,1.20
2023-02-25T19:21:34.444Z,0.85
2023-02-25T19:24:06.298Z,1.00
2023-02-25T19:26:38.967Z,1.50
2023-02-25T19:29:17.121Z,1.30
2023-02-25T19:31:47.218Z,1.17
2023-02-25T19:34:17.693Z,1.25
2023-02-25T19:36:48.186Z,2.08
2023-02-25T19:39:17.362Z,2.20
2023-02-25T19:41:49.260Z,1.80
2023-02-25T19:44:20.944Z,1.27
2023-02-25T19:46:49.764Z,1.67
2023-02-25T19:49:20.029Z,1.13
2023-02-25T19:51:50.042Z,1.83
2023-02-25T19:54:20.604Z,1.60
2023-02-25T19:56:51.507Z,1.48
2023-02-25T19:59:21.125Z,1.15
2023-02-25T20:01:50.015Z,1.95
2023-02-25T20:04:18.350Z,3.65
2023-02-25T20:06:57.390Z,3.03
2023-02-25T20:09:25.796Z,1.92
2023-02-25T20:11:55.903Z,1.40
2023-02-25T20:14:28.892Z,2.55
2023-02-25T20:17:01.825Z,1.35
2023-02-25T20:19:32.808Z,1.50
2023-02-25T20:22:06.059Z,1.80
2023-02-25T20:24:38.451Z,1.83
2023-02-25T20:27:08.270Z,1.30
2023-02-25T20:29:38.007Z,1.40
2023-02-25T20:32:11.597Z,1.65
2023-02-25T20:34:44.058Z,1.60
2023-02-25T20:37:12.643Z,1.70
2023-02-25T20:39:45.522Z,1.25
2023-02-25T20:42:19.945Z,1.70
2023-02-25T20:44:51.978Z,1.50
2023-02-25T20:47:24.616Z,1.27
2023-02-25T20:49:53.525Z,1.88
2023-02-25T20:52:22.629Z,1.42
2023-02-25T20:54:51.217Z,1.75
2023-02-25T20:57:21.999Z,2.38
2023-02-25T20:59:54.522Z,2.40
2023-02-25T21:02:24.108Z,1.60
2023-02-25T21:04:52.792Z,2.03
2023-02-25T21:07:21.722Z,2.03
2023-02-25T21:09:52.550Z,1.23
2023-02-25T21:12:21.277Z,2.08
2023-02-25T21:14:52.489Z,2.78
2023-02-25T21:17:21.070Z,1.83
2023-02-25T21:19:49.507Z,1.73
2023-02-25T21:22:17.886Z,2.00
2023-02-25T21:24:46.371Z,1.70
2023-02-25T21:27:15.074Z,1.60
2023-02-25T21:29:43.777Z,1.52
2023-02-25T21:32:15.477Z,1.50
2023-02-25T21:34:48.225Z,1.45
2023-02-25T21:37:21.948Z,1.75
2023-02-25T21:39:54.176Z,2.00
2023-02-25T21:42:23.206Z,1.00
2023-02-25T21:44:51.928Z,1.30
2023-02-25T21:47:21.478Z,1.40
2023-02-25T21:49:54.596Z,1.15
2023-02-25T21:52:24.253Z,1.42
2023-02-25T21:54:53.983Z,1.02
2023-02-25T21:57:22.464Z,1.45
2023-02-25T21:59:53.713Z,1.05
2023-02-25T22:02:22.728Z,0.98
2023-02-25T22:04:53.512Z,1.75
2023-02-25T22:07:24.817Z,1.73
2023-02-25T22:09:53.117Z,1.27
2023-02-25T22:12:26.028Z,1.27
2023-02-25T22:14:57.137Z,1.50
2023-02-25T22:17:28.611Z,1.10
2023-02-25T22:20:00.085Z,1.63
2023-02-25T22:25:05.835Z,1.27
2023-02-25T22:27:39.541Z,1.42
2023-02-25T22:30:08.819Z,1.00
2023-02-25T22:32:56.420Z,1.05
2023-02-25T22:35:28.395Z,1.38
2023-02-25T22:37:59.402Z,1.30
2023-02-25T22:40:31.090Z,1.08
2023-02-25T22:43:18.733Z,1.20
2023-02-25T22:45:47.111Z,1.30
2023-02-25T22:48:17.255Z,1.10
2023-02-25T22:50:50.055Z,1.13
2023-02-25T22:53:22.305Z,1.27
2023-02-25T22:55:53.157Z,1.40
2023-02-25T22:58:24.021Z,1.13
2023-02-25T23:00:54.900Z,1.02
2023-02-25T23:03:32.123Z,1.10
2023-02-25T23:06:01.769Z,1.13
2023-02-25T23:08:34.037Z,1.10
2023-02-25T23:11:19.119Z,1.02
2023-02-25T23:13:50.009Z,1.30
2023-02-25T23:16:19.960Z,1.40
2023-02-25T23:18:54.066Z,1.58
2023-02-25T23:21:23.382Z,1.63
2023-02-25T23:23:52.966Z,1.48
2023-02-25T23:26:25.775Z,1.20
2023-02-25T23:28:57.845Z,1.35
2023-02-25T23:31:27.499Z,1.60
2023-02-25T23:33:57.580Z,1.60
2023-02-25T23:36:29.312Z,1.33
2023-02-25T23:39:00.270Z,1.67
2023-02-25T23:41:32.898Z,1.48
2023-02-25T23:44:01.702Z,1.10
2023-02-25T23:46:33.566Z,1.33
2023-02-25T23:49:08.480Z,2.65
2023-02-25T23:51:42.727Z,1.80
2023-02-25T23:54:13.262Z,1.48
2023-02-25T23:56:42.045Z,1.20
2023-02-25T23:59:12.976Z,1.10
